Time;durP1;ratioP1;P1;durP2;ratioP2;P2;SDS_P1;SDS_P2;PMS_P1;PMS_P2;Temp;Humidity;BMP_temperature;BMP_pressure;BME280_temperature;BME280_humidity;BME280_pressure;Samples;Min_cycle;Max_cycle;Signal;HPM_P1;HPM_P2
2022/03/14 00:00:43;;;;;;;;;3.25;2.25;;;;;14.07;57.56;101512.91;5103577;27;61712;-76
2022/03/14 00:03:11;;;;;;;;;2.00;2.00;;;;;14.17;57.77;101530.94;5103687;27;61630;-77
2022/03/14 00:05:37;;;;;;;;;5.25;1.25;;;;;14.16;57.29;101526.50;5119005;27;63754;-77
2022/03/14 00:08:03;;;;;;;;;1.00;1.00;;;;;14.19;57.69;101529.25;5102376;27;61966;-77
2022/03/14 00:10:29;;;;;;;;;1.25;1.00;;;;;14.22;57.10;101537.28;5101834;27;61916;-76
2022/03/14 00:12:56;;;;;;;;;1.00;1.00;;;;;14.24;57.16;101537.38;5104041;27;62366;-77
2022/03/14 00:15:22;;;;;;;;;1.75;1.75;;;;;14.27;56.84;101543.69;5102768;27;62107;-77
2022/03/14 00:17:49;;;;;;;;;5.25;1.25;;;;;14.22;56.96;101547.84;5103545;27;61948;-77
2022/03/14 00:20:15;;;;;;;;;2.75;2.00;;;;;14.26;57.01;101552.44;5101869;27;61800;-77
2022/03/14 00:22:43;;;;;;;;;1.75;1.75;;;;;14.29;56.82;101565.78;5102008;27;62066;-77
2022/03/14 00:25:10;;;;;;;;;2.00;2.00;;;;;14.20;56.73;101567.13;5117951;27;64510;-77
2022/03/14 00:27:36;;;;;;;;;4.50;1.00;;;;;14.28;56.76;101571.00;5103011;27;61771;-77
2022/03/14 00:30:11;;;;;;;;;2.00;1.00;;;;;14.29;56.88;101579.00;5102130;27;61847;-77
2022/03/14 00:32:41;;;;;;;;;1.00;1.00;;;;;14.20;56.95;101583.88;5101873;27;61687;-76
2022/03/14 00:35:07;;;;;;;;;1.75;1.75;;;;;14.25;56.70;101584.97;5102678;27;63110;-77
2022/03/14 00:37:33;;;;;;;;;1.00;1.00;;;;;14.25;56.76;101599.94;5101856;27;62021;-77
2022/03/14 00:39:59;;;;;;;;;1.00;1.00;;;;;14.31;56.59;101600.19;5103204;27;61994;-77
2022/03/14 00:42:25;;;;;;;;;2.00;2.00;;;;;14.26;56.48;101601.72;5103583;27;61760;-77
2022/03/14 00:44:51;;;;;;;;;6.00;1.00;;;;;14.31;56.53;101610.75;5102492;27;61916;-76
2022/03/14 00:47:18;;;;;;;;;2.00;0.75;;;;;14.36;56.51;101611.84;5103053;27;61871;-76
2022/03/14 00:49:44;;;;;;;;;1.00;1.00;;;;;14.36;56.58;101618.88;5101319;27;61823;-77
2022/03/14 00:52:10;;;;;;;;;1.00;1.00;;;;;14.19;56.83;101629.59;5103417;27;61653;-76
2022/03/14 00:54:37;;;;;;;;;1.00;1.00;;;;;14.31;56.83;101626.59;5100732;27;63492;-77
2022/03/14 00:57:03;;;;;;;;;0.75;0.75;;;;;14.34;56.56;101634.63;5101240;27;61814;-76
2022/03/14 00:59:28;;;;;;;;;3.00;0.00;;;;;14.39;56.60;101640.13;5101319;27;61884;-76
2022/03/14 01:01:54;;;;;;;;;6.50;2.00;;;;;14.36;56.06;101642.63;5103423;27;61767;-77
2022/03/14 01:04:20;;;;;;;;;2.00;0.75;;;;;14.44;56.46;101647.41;5100606;27;61914;-77
2022/03/14 01:06:45;;;;;;;;;1.75;1.00;;;;;14.45;56.21;101657.13;5103005;27;61798;-77
2022/03/14 01:09:11;;;;;;;;;0.25;0.00;;;;;14.45;56.50;101659.75;5102444;27;62345;-77
2022/03/14 01:11:38;;;;;;;;;1.00;1.00;;;;;14.41;56.07;101667.50;5101434;27;62341;-77
2022/03/14 01:14:04;;;;;;;;;2.75;2.75;;;;;14.40;56.23;101665.72;5100830;27;63044;-77
2022/03/14 01:16:30;;;;;;;;;1.75;1.00;;;;;14.36;56.05;101667.31;5102871;27;61818;-77
2022/03/14 01:18:55;;;;;;;;;1.75;1.00;;;;;14.43;56.50;101668.47;5102255;27;61704;-76
2022/03/14 01:21:21;;;;;;;;;1.00;0.50;;;;;14.50;56.57;101674.09;5101761;27;62111;-77
2022/03/14 01:23:46;;;;;;;;;1.50;1.25;;;;;14.49;56.21;101682.84;5100121;27;63678;-76
2022/03/14 01:26:12;;;;;;;;;2.75;1.00;;;;;14.50;56.06;101686.38;5102346;27;61868;-77
2022/03/14 01:28:37;;;;;;;;;2.00;1.00;;;;;14.52;55.96;101693.56;5101473;27;62142;-77
2022/03/14 01:31:04;;;;;;;;;1.00;1.00;;;;;14.51;56.29;101691.72;5103945;27;62032;-76
2022/03/14 01:33:29;;;;;;;;;2.00;1.00;;;;;14.46;56.20;101705.56;5105031;27;62064;-77
2022/03/14 01:35:55;;;;;;;;;0.25;0.25;;;;;14.48;56.17;101702.19;5106294;27;61901;-77
2022/03/14 01:38:20;;;;;;;;;2.00;0.00;;;;;14.50;56.02;101703.16;5106978;27;62036;-76
2022/03/14 01:40:46;;;;;;;;;0.00;0.00;;;;;14.49;55.81;101709.25;5104952;27;61830;-77
2022/03/14 01:43:11;;;;;;;;;0.00;0.00;;;;;14.54;55.92;101706.81;5103912;27;63239;-76
2022/03/14 01:45:37;;;;;;;;;1.00;1.00;;;;;14.53;55.88;101708.56;5105846;27;61677;-77
2022/03/14 01:48:05;;;;;;;;;3.00;1.75;;;;;14.55;55.79;101708.66;5105857;27;62034;-76
2022/03/14 01:50:33;;;;;;;;;1.75;1.00;;;;;14.56;55.89;101707.81;5106159;27;61946;-77
2022/03/14 01:52:58;;;;;;;;;2.00;1.00;;;;;14.54;56.06;101717.38;5104726;27;61740;-77
2022/03/14 01:55:24;;;;;;;;;2.00;1.50;;;;;14.49;55.96;101713.66;5105540;27;61801;-76
2022/03/14 01:57:50;;;;;;;;;1.00;1.00;;;;;14.51;55.90;101720.78;5104103;27;62132;-76
2022/03/14 02:00:15;;;;;;;;;0.50;0.50;;;;;14.47;56.07;101720.59;5105798;27;61871;-77
2022/03/14 02:02:42;;;;;;;;;4.00;0.50;;;;;14.49;56.17;101719.81;5103263;27;63314;-77
2022/03/14 02:05:09;;;;;;;;;3.50;0.50;;;;;14.50;55.82;101723.34;5105426;27;61819;-77
2022/03/14 02:07:34;;;;;;;;;1.75;0.75;;;;;14.40;56.20;101718.53;5105280;27;61790;-76
2022/03/14 02:10:01;;;;;;;;;0.25;0.25;;;;;14.36;56.29;101725.41;5104177;27;61746;-76
2022/03/14 02:12:26;;;;;;;;;2.75;1.00;;;;;14.33;56.37;101722.63;5120861;27;63290;-76
2022/03/14 02:14:52;;;;;;;;;1.75;1.00;;;;;14.32;56.37;101727.00;5105002;27;61891;-77
2022/03/14 02:17:20;;;;;;;;;0.00;0.00;;;;;14.26;56.50;101729.38;5105706;27;61830;-77
2022/03/14 02:19:46;;;;;;;;;1.00;1.00;;;;;14.20;56.27;101726.44;5103748;27;61904;-77
2022/03/14 02:22:13;;;;;;;;;2.50;1.00;;;;;14.16;56.53;101736.81;5104407;27;63191;-77
2022/03/14 02:24:44;;;;;;;;;1.25;0.50;;;;;14.13;56.77;101732.31;5105168;27;61917;-77
2022/03/14 02:27:11;;;;;;;;;2.00;1.00;;;;;14.11;56.69;101732.22;5105076;27;62013;-76
2022/03/14 02:29:37;;;;;;;;;2.75;1.00;;;;;14.06;56.51;101730.22;5105338;27;61660;-77
2022/03/14 02:32:03;;;;;;;;;3.25;0.75;;;;;14.02;56.69;101736.19;5120679;27;63698;-77
2022/03/14 02:34:29;;;;;;;;;3.00;0.00;;;;;13.99;56.97;101738.69;5104594;27;61770;-76
2022/03/14 02:36:54;;;;;;;;;1.25;1.00;;;;;13.99;57.29;101738.69;5103349;27;61808;-76
2022/03/14 02:39:20;;;;;;;;;6.25;1.00;;;;;13.98;57.09;101751.00;5105389;27;62154;-77
2022/03/14 02:41:45;;;;;;;;;2.00;0.25;;;;;13.96;57.13;101744.72;5104007;27;61848;-77
2022/03/14 02:44:11;;;;;;;;;3.25;1.75;;;;;13.97;57.13;101750.91;5104894;27;61902;-77
2022/03/14 02:46:38;;;;;;;;;2.75;1.75;;;;;13.94;57.16;101754.31;5104844;27;61942;-77
2022/03/14 02:49:08;;;;;;;;;1.75;1.75;;;;;13.88;57.14;101752.31;5104799;27;62110;-77
2022/03/14 02:51:34;;;;;;;;;1.00;1.00;;;;;13.87;57.45;101758.41;5103726;27;63050;-77
2022/03/14 02:54:02;;;;;;;;;2.50;1.75;;;;;13.84;57.26;101760.91;5104830;27;61773;-77
2022/03/14 02:56:27;;;;;;;;;2.50;2.00;;;;;13.82;57.51;101766.97;5120091;27;61950;-76
2022/03/14 02:58:53;;;;;;;;;2.50;1.00;;;;;13.81;57.49;101783.63;5120328;27;61824;-76
2022/03/14 03:01:19;;;;;;;;;4.25;2.00;;;;;13.78;57.49;101783.47;5102956;27;64705;-77
2022/03/14 03:03:44;;;;;;;;;1.75;1.75;;;;;13.75;57.15;101789.50;5104012;27;61995;-76
2022/03/14 03:06:13;;;;;;;;;3.75;2.75;;;;;13.73;57.49;101791.16;5104534;27;61860;-76
2022/03/14 03:08:43;;;;;;;;;4.75;1.00;;;;;13.72;57.75;101796.38;5103364;27;61768;-77
2022/03/14 03:11:09;;;;;;;;;1.00;1.00;;;;;13.70;57.66;101809.50;5119731;27;63721;-77
2022/03/14 03:13:35;;;;;;;;;1.00;1.00;;;;;13.70;57.76;101812.13;5103004;27;61973;-77
2022/03/14 03:16:01;;;;;;;;;2.50;1.25;;;;;13.68;58.02;101812.03;5103381;27;61960;-77
2022/03/14 03:18:26;;;;;;;;;5.75;1.50;;;;;13.69;58.06;101823.53;5103866;27;61814;-76
2022/03/14 03:20:52;;;;;;;;;5.00;2.00;;;;;13.67;58.00;101828.72;5102027;27;63863;-76
2022/03/14 03:23:19;;;;;;;;;3.25;2.25;;;;;13.61;58.45;101824.88;5120211;27;61852;-77
2022/03/14 03:25:44;;;;;;;;;3.25;2.00;;;;;13.57;58.36;101833.47;5104292;27;62175;-77
2022/03/14 03:28:09;;;;;;;;;5.75;2.00;;;;;13.57;58.05;101842.28;5104229;27;62171;-76
2022/03/14 03:30:35;;;;;;;;;0.75;0.75;;;;;13.55;58.54;101841.31;5103557;27;61733;-76
2022/03/14 03:33:00;;;;;;;;;1.25;1.00;;;;;13.55;58.04;101849.22;5103935;27;61738;-76
2022/03/14 03:35:26;;;;;;;;;3.25;1.50;;;;;13.49;58.04;101860.38;5103595;27;61915;-77
2022/03/14 03:37:51;;;;;;;;;4.00;2.00;;;;;13.51;58.05;101865.72;5104590;27;61833;-77
2022/03/14 03:40:17;;;;;;;;;2.00;2.00;;;;;13.52;58.25;101867.56;5103357;27;62823;-77
2022/03/14 03:42:42;;;;;;;;;6.00;1.00;;;;;13.50;58.07;101877.13;5102927;27;61710;-77
2022/03/14 03:45:09;;;;;;;;;5.00;2.00;;;;;13.51;58.12;101881.53;5103860;27;61793;-77
2022/03/14 03:47:34;;;;;;;;;1.00;1.00;;;;;13.48;58.29;101886.69;5103788;27;62128;-76
2022/03/14 03:50:00;;;;;;;;;1.00;1.00;;;;;13.46;58.33;101889.22;5103095;27;61890;-77
2022/03/14 03:52:26;;;;;;;;;2.75;1.50;;;;;13.45;58.48;101879.53;5103939;27;61795;-77
2022/03/14 03:54:52;;;;;;;;;4.25;1.00;;;;;13.45;58.04;101882.16;5118797;27;61866;-77
2022/03/14 03:57:18;;;;;;;;;1.00;1.00;;;;;13.43;58.26;101888.16;5102213;27;61946;-77
2022/03/14 03:59:43;;;;;;;;;2.00;1.75;;;;;13.40;58.04;101888.91;5101739;27;64423;-77
2022/03/14 04:02:09;;;;;;;;;6.50;1.25;;;;;13.40;58.33;101890.66;5103709;27;61764;-77
2022/03/14 04:04:37;;;;;;;;;3.25;1.25;;;;;13.40;58.39;101906.50;5102957;27;61720;-77
2022/03/14 04:07:04;;;;;;;;;1.50;1.50;;;;;13.39;58.59;101907.28;5103908;27;61985;-77
2022/03/14 04:09:30;;;;;;;;;3.00;1.00;;;;;13.39;58.49;101908.22;5103390;27;63319;-76
2022/03/14 04:11:55;;;;;;;;;7.50;2.00;;;;;13.40;58.59;101909.13;5103470;27;61813;-77
2022/03/14 04:14:22;;;;;;;;;3.75;1.25;;;;;13.40;58.30;101914.41;5103614;27;61752;-76
2022/03/14 04:16:47;;;;;;;;;3.00;1.50;;;;;13.40;58.30;101922.31;5103491;27;61988;-76
2022/03/14 04:19:13;;;;;;;;;3.00;1.75;;;;;13.39;58.52;101921.41;5102242;27;61789;-76
2022/03/14 04:21:38;;;;;;;;;2.50;1.00;;;;;13.38;58.37;101927.50;5103601;27;61712;-76
2022/03/14 04:24:06;;;;;;;;;2.00;2.00;;;;;13.37;58.17;101936.25;5103178;27;61835;-76
2022/03/14 04:26:32;;;;;;;;;5.25;1.00;;;;;13.36;58.08;101936.16;5103377;27;61728;-76
2022/03/14 04:28:57;;;;;;;;;7.50;5.00;;;;;13.36;58.19;101942.34;5101464;27;61919;-77
2022/03/14 04:31:22;;;;;;;;;10.50;1.25;;;;;13.39;57.88;101941.59;5101627;27;61940;-76
2022/03/14 04:33:48;;;;;;;;;4.50;2.00;;;;;13.40;58.23;101940.78;5102844;27;62395;-76
2022/03/14 04:36:14;;;;;;;;;2.00;1.75;;;;;13.42;57.95;101942.66;5102090;27;62104;-76
2022/03/14 04:38:39;;;;;;;;;1.00;1.00;;;;;13.40;58.06;101949.59;5101560;27;64636;-76
2022/03/14 04:41:05;;;;;;;;;4.75;1.75;;;;;13.39;58.48;101958.34;5103581;27;61874;-76
2022/03/14 04:43:31;;;;;;;;;2.00;0.75;;;;;13.39;58.16;101962.69;5101998;27;61766;-77
2022/03/14 04:45:56;;;;;;;;;3.25;1.25;;;;;13.37;57.90;101964.34;5102788;27;61767;-76
2022/03/14 04:48:23;;;;;;;;;2.75;2.75;;;;;13.37;58.07;101973.19;5118042;27;62058;-77
2022/03/14 04:50:50;;;;;;;;;4.00;2.00;;;;;13.35;58.06;101976.56;5103106;27;61766;-77
2022/03/14 04:53:16;;;;;;;;;3.50;1.75;;;;;13.31;58.10;101974.59;5103264;27;61700;-77
2022/03/14 04:55:42;;;;;;;;;2.00;2.00;;;;;13.29;57.91;101983.31;5101613;27;61755;-76
2022/03/14 04:58:12;;;;;;;;;3.50;0.25;;;;;13.26;57.86;101988.41;5117789;27;61861;-76
2022/03/14 05:00:38;;;;;;;;;4.00;1.50;;;;;13.22;57.54;101986.44;5118372;27;61749;-76
2022/03/14 05:03:05;;;;;;;;;1.00;1.00;;;;;13.21;57.89;101996.88;5118797;27;61908;-76
2022/03/14 05:05:31;;;;;;;;;6.00;2.00;;;;;13.18;57.93;101992.34;5120648;27;61707;-76
2022/03/14 05:07:56;;;;;;;;;6.75;1.50;;;;;13.15;58.10;101989.53;5104618;27;64606;-77
2022/03/14 05:10:23;;;;;;;;;1.75;1.50;;;;;13.13;57.82;101993.81;5106378;27;61914;-77
2022/03/14 05:12:49;;;;;;;;;6.25;2.00;;;;;13.09;58.11;102000.69;5106863;27;61899;-77
2022/03/14 05:15:16;;;;;;;;;2.00;2.00;;;;;13.04;57.94;102015.31;5105855;27;62515;-76
2022/03/14 05:17:42;;;;;;;;;4.75;1.75;;;;;13.03;58.16;102015.28;5105385;27;62046;-77
2022/03/14 05:20:08;;;;;;;;;4.50;3.50;;;;;13.00;58.31;102028.25;5122276;27;62260;-77
2022/03/14 05:22:41;;;;;;;;;3.25;2.00;;;;;12.98;58.04;102029.91;5104594;27;61787;-76
2022/03/14 05:25:07;;;;;;;;;9.00;5.00;;;;;12.87;58.19;102026.69;5106546;27;61852;-77
2022/03/14 05:27:34;;;;;;;;;9.00;1.75;;;;;12.84;58.09;102029.16;5105315;27;62038;-77
2022/03/14 05:30:06;;;;;;;;;4.25;4.25;;;;;12.86;58.51;102032.78;5104410;27;61766;-76
2022/03/14 05:32:32;;;;;;;;;7.50;4.00;;;;;12.85;58.40;102030.97;5104862;27;61780;-76
2022/03/14 05:34:57;;;;;;;;;4.25;4.25;;;;;12.83;58.28;102030.91;5105433;27;61771;-76
2022/03/14 05:37:22;;;;;;;;;6.00;3.00;;;;;12.81;58.42;102031.59;5105691;27;62993;-77
2022/03/14 05:39:49;;;;;;;;;5.75;2.00;;;;;12.78;58.27;102034.09;5106102;27;61750;-76
2022/03/14 05:42:15;;;;;;;;;1.50;1.50;;;;;12.78;58.15;102034.97;5106110;27;61927;-77
2022/03/14 05:44:43;;;;;;;;;2.50;1.25;;;;;12.75;58.51;102029.56;5104299;27;62096;-76
2022/03/14 05:47:09;;;;;;;;;3.50;2.00;;;;;12.74;58.40;102026.84;5105216;27;62845;-76
2022/03/14 05:49:35;;;;;;;;;6.00;2.50;;;;;12.69;58.66;102040.66;5105598;27;61928;-76
2022/03/14 05:52:00;;;;;;;;;3.50;3.00;;;;;12.69;58.30;102045.03;5106062;27;61795;-77
2022/03/14 05:54:25;;;;;;;;;3.25;3.25;;;;;12.68;58.18;102048.47;5105994;27;62079;-77
2022/03/14 05:56:51;;;;;;;;;5.50;5.00;;;;;12.66;58.77;102056.31;5103262;27;62895;-77
2022/03/14 05:59:16;;;;;;;;;2.50;1.00;;;;;12.63;58.41;102058.75;5105225;27;61888;-77
2022/03/14 06:01:42;;;;;;;;;3.00;2.50;;;;;12.60;58.55;102057.69;5105907;27;62167;-76
2022/03/14 06:04:07;;;;;;;;;3.75;2.00;;;;;12.61;58.74;102072.66;5105408;27;62171;-76
2022/03/14 06:06:34;;;;;;;;;3.50;2.00;;;;;12.62;58.78;102075.38;5105048;27;62927;-77
2022/03/14 06:08:59;;;;;;;;;6.50;2.25;;;;;12.61;58.72;102077.94;5121564;27;61754;-82
2022/03/14 06:11:27;;;;;;;;;8.25;5.25;;;;;12.62;58.50;102079.75;5103484;27;61879;-83
2022/03/14 06:13:52;;;;;;;;;2.50;2.50;;;;;12.61;58.52;102081.47;5104679;27;62068;-82
2022/03/14 06:16:18;;;;;;;;;4.75;2.25;;;;;12.61;58.59;102080.56;5103046;27;63383;-81
2022/03/14 06:18:44;;;;;;;;;5.75;3.00;;;;;12.62;58.42;102088.56;5103811;27;61994;-84
2022/03/14 06:21:09;;;;;;;;;6.00;5.25;;;;;12.63;58.25;102084.19;5105547;27;61935;-80
2022/03/14 06:23:35;;;;;;;;;4.25;4.25;;;;;12.63;58.18;102089.47;5105412;27;62227;-83
2022/03/14 06:26:01;;;;;;;;;6.50;5.75;;;;;12.62;58.20;102093.81;5104121;27;62009;-83
2022/03/14 06:28:26;;;;;;;;;6.50;6.50;;;;;12.63;58.36;102098.25;5102577;27;61886;-83
2022/03/14 06:30:52;;;;;;;;;7.75;6.00;;;;;12.63;58.17;102100.91;5105307;27;61893;-82
2022/03/14 06:33:17;;;;;;;;;5.75;5.25;;;;;12.64;58.21;102105.34;5104700;27;62210;-81
2022/03/14 06:35:43;;;;;;;;;7.25;6.00;;;;;12.67;58.52;102110.78;5102912;27;64788;-84
2022/03/14 06:38:11;;;;;;;;;6.25;6.25;;;;;12.70;58.64;102125.84;5100166;27;61802;-82
2022/03/14 06:40:37;;;;;;;;;7.00;4.75;;;;;12.73;58.38;102133.06;5103824;27;61992;-83
2022/03/14 06:43:02;;;;;;;;;6.50;5.75;;;;;12.75;58.34;102134.06;5103346;27;62238;-81
2022/03/14 06:45:28;;;;;;;;;8.25;6.00;;;;;12.78;58.36;102136.84;5104169;27;61802;-81
2022/03/14 06:47:54;;;;;;;;;5.00;5.00;;;;;12.84;58.07;102147.75;5120478;27;62391;-83
2022/03/14 06:50:21;;;;;;;;;10.25;6.75;;;;;12.93;58.19;102155.25;5104379;27;62224;-81
2022/03/14 06:52:47;;;;;;;;;11.00;7.00;;;;;12.97;58.07;102163.44;5104602;27;61887;-77
2022/03/14 06:55:13;;;;;;;;;8.00;6.00;;;;;12.99;57.91;102151.25;5119906;27;62106;-81
2022/03/14 06:57:39;;;;;;;;;9.50;6.50;;;;;13.02;57.88;102159.31;5103777;27;61940;-81
2022/03/14 07:00:06;;;;;;;;;10.00;7.00;;;;;13.07;57.96;102152.59;5104065;27;61954;-79
2022/03/14 07:02:31;;;;;;;;;10.25;8.50;;;;;13.12;57.99;102147.56;5103409;27;61852;-76
2022/03/14 07:04:57;;;;;;;;;14.50;7.50;;;;;13.21;57.87;102160.34;5101784;27;62834;-76
2022/03/14 07:07:23;;;;;;;;;10.75;6.50;;;;;13.28;57.53;102159.84;5102448;27;62002;-76
2022/03/14 07:09:48;;;;;;;;;3.00;3.00;;;;;13.38;57.64;102177.16;5101869;27;63126;-75
2022/03/14 07:12:14;;;;;;;;;6.50;4.75;;;;;13.49;57.61;102184.81;5103390;27;61937;-76
2022/03/14 07:14:39;;;;;;;;;10.25;7.25;;;;;13.69;57.34;102191.19;5102434;27;61995;-76
2022/03/14 07:17:06;;;;;;;;;11.00;5.25;;;;;14.08;56.49;102191.50;5104473;27;62048;-77
2022/03/14 07:19:31;;;;;;;;;4.25;3.25;;;;;14.48;55.83;102196.22;5103970;27;61687;-76
2022/03/14 07:21:57;;;;;;;;;10.00;5.75;;;;;14.79;54.77;102200.44;5104774;27;62093;-77
2022/03/14 07:24:22;;;;;;;;;8.50;4.75;;;;;15.03;54.29;102200.75;5103517;27;62875;-77
2022/03/14 07:26:48;;;;;;;;;7.00;6.00;;;;;15.24;53.73;102206.16;5101400;27;61840;-83
2022/03/14 07:29:14;;;;;;;;;9.00;6.50;;;;;15.52;53.49;102202.19;5101273;27;61877;-82
2022/03/14 07:31:41;;;;;;;;;6.50;5.50;;;;;16.08;52.14;102203.91;5100889;27;62314;-79
2022/03/14 07:34:07;;;;;;;;;10.00;5.75;;;;;16.35;51.73;102203.34;5098302;27;62770;-77
2022/03/14 07:36:34;;;;;;;;;3.25;2.00;;;;;16.48;51.27;102207.41;5102364;27;62247;-85
2022/03/14 07:39:02;;;;;;;;;8.50;6.00;;;;;16.53;50.95;102220.00;5102004;27;62469;-85
2022/03/14 07:41:28;;;;;;;;;6.25;6.25;;;;;16.30;51.01;102224.34;5136255;27;62162;-85
2022/03/14 07:43:53;;;;;;;;;8.75;5.50;;;;;16.03;51.24;102226.66;5103179;27;61766;-85
2022/03/14 07:46:19;;;;;;;;;8.00;6.00;;;;;15.80;51.83;102233.53;5103216;27;62341;-85
2022/03/14 07:48:44;;;;;;;;;3.25;1.25;;;;;15.62;52.10;102251.19;5102356;27;62206;-84
2022/03/14 07:51:10;;;;;;;;;10.00;7.00;;;;;15.44;52.26;102249.44;5102499;27;62123;-85
2022/03/14 07:53:36;;;;;;;;;7.25;6.00;;;;;15.33;52.81;102258.63;5100234;27;63997;-85
2022/03/14 07:56:01;;;;;;;;;11.00;5.75;;;;;15.27;53.11;102261.84;5101329;27;61865;-84
2022/03/14 07:58:27;;;;;;;;;11.25;8.25;;;;;15.34;53.10;102265.75;5102122;27;61700;-84
2022/03/14 08:00:54;;;;;;;;;11.00;7.00;;;;;15.47;52.85;102260.19;5101324;27;62080;-84
2022/03/14 08:03:23;;;;;;;;;9.75;6.00;;;;;15.62;52.58;102261.78;5101074;27;64615;-84
2022/03/14 08:05:53;;;;;;;;;12.00;6.00;;;;;15.72;52.12;102264.03;5103656;27;61688;-84
2022/03/14 08:08:19;;;;;;;;;5.25;4.25;;;;;15.82;51.92;102257.44;5102288;27;62354;-84
2022/03/14 08:10:46;;;;;;;;;5.50;4.00;;;;;15.85;51.80;102258.50;5103173;27;61842;-85
2022/03/14 08:13:11;;;;;;;;;6.25;5.75;;;;;15.90;51.34;102261.38;5101664;27;63538;-85
2022/03/14 08:15:37;;;;;;;;;7.00;6.00;;;;;15.92;51.57;102273.84;5101990;27;61778;-85
2022/03/14 08:18:08;;;;;;;;;12.00;8.00;;;;;15.98;51.52;102281.16;5101549;27;61803;-85
2022/03/14 08:20:37;;;;;;;;;10.50;6.00;;;;;16.03;51.66;102284.91;5103767;27;61829;-85
2022/03/14 08:23:04;;;;;;;;;7.00;7.00;;;;;16.06;51.44;102293.00;5135953;27;61828;-85
2022/03/14 08:25:31;;;;;;;;;7.50;5.25;;;;;16.07;51.42;102299.22;5102714;27;61843;-85
2022/03/14 08:27:57;;;;;;;;;9.00;6.75;;;;;16.10;51.71;102291.41;5103160;27;61961;-85
2022/03/14 08:30:23;;;;;;;;;12.25;7.50;;;;;16.10;51.59;102294.94;5101735;27;62189;-85
2022/03/14 08:32:51;;;;;;;;;9.75;7.00;;;;;16.13;51.27;102289.81;5102457;27;61866;-84
2022/03/14 08:35:20;;;;;;;;;7.00;7.00;;;;;16.20;51.36;102290.09;5101535;27;61866;-85
2022/03/14 08:37:47;;;;;;;;;8.00;6.75;;;;;16.21;51.45;102294.53;5101569;27;61869;-84
2022/03/14 08:40:16;;;;;;;;;8.25;7.00;;;;;16.26;51.30;102300.94;5103475;27;61857;-85
2022/03/14 08:42:43;;;;;;;;;7.00;5.25;;;;;16.27;51.56;102302.78;5106491;27;62795;-84
2022/03/14 08:45:09;;;;;;;;;8.25;7.00;;;;;16.22;51.25;102306.97;5105255;27;61865;-85
2022/03/14 08:47:38;;;;;;;;;9.25;4.25;;;;;16.23;51.64;102309.66;5105074;27;61968;-84
2022/03/14 08:50:06;;;;;;;;;5.00;5.00;;;;;16.26;51.68;102320.44;5106685;27;61952;-85
2022/03/14 08:52:31;;;;;;;;;25.75;19.75;;;;;16.28;52.12;102325.78;5105590;27;63061;-84
2022/03/14 08:54:58;;;;;;;;;9.50;9.50;;;;;16.34;51.87;102323.41;5106231;27;62235;-85
2022/03/14 08:57:23;;;;;;;;;10.75;10.25;;;;;16.40;52.06;102326.34;5106221;27;61877;-85
2022/03/14 08:59:49;;;;;;;;;8.25;7.00;;;;;16.35;51.52;102326.13;5105029;27;62194;-87
2022/03/14 09:02:15;;;;;;;;;12.50;8.50;;;;;16.41;51.71;102330.81;5104117;27;63208;-85
2022/03/14 09:04:40;;;;;;;;;9.00;6.00;;;;;16.45;51.62;102326.53;5104636;27;62154;-84
2022/03/14 09:07:06;;;;;;;;;5.25;5.25;;;;;16.46;51.79;102325.72;5105888;27;62090;-84
2022/03/14 09:09:32;;;;;;;;;5.00;5.00;;;;;16.49;51.51;102326.75;5105319;27;62227;-84
2022/03/14 09:11:58;;;;;;;;;5.50;5.50;;;;;16.50;51.37;102327.69;5104441;27;62054;-84
2022/03/14 09:14:24;;;;;;;;;8.25;4.25;;;;;16.49;51.62;102331.16;5106332;27;62033;-84
2022/03/14 09:16:51;;;;;;;;;8.00;6.50;;;;;16.51;51.62;102333.03;5104786;27;61867;-84
2022/03/14 09:19:16;;;;;;;;;10.75;5.00;;;;;16.52;51.50;102332.19;5104908;27;61807;-85
2022/03/14 09:21:42;;;;;;;;;8.25;6.50;;;;;16.57;51.65;102335.06;5105430;27;62739;-84
2022/03/14 09:24:07;;;;;;;;;6.25;5.25;;;;;16.64;51.89;102339.78;5104925;27;61802;-85
2022/03/14 09:26:35;;;;;;;;;10.25;5.00;;;;;16.64;51.12;102341.53;5104428;27;62068;-85
2022/03/14 09:29:01;;;;;;;;;6.25;5.75;;;;;16.69;51.62;102346.22;5104654;27;61867;-85
2022/03/14 09:31:26;;;;;;;;;9.75;7.00;;;;;16.74;51.56;102338.47;5105630;27;61828;-85
2022/03/14 09:33:52;;;;;;;;;12.75;7.25;;;;;16.77;51.53;102336.84;5105794;27;62068;-84
2022/03/14 09:36:17;;;;;;;;;8.00;5.25;;;;;16.78;51.59;102340.41;5105351;27;61839;-85
2022/03/14 09:38:44;;;;;;;;;6.75;6.00;;;;;16.81;51.59;102339.66;5104964;27;61995;-84
2022/03/14 09:41:12;;;;;;;;;15.00;6.75;;;;;16.82;51.42;102337.09;5103790;27;62053;-84
2022/03/14 09:43:44;;;;;;;;;4.75;4.75;;;;;16.88;51.66;102337.34;5121792;27;62179;-85
2022/03/14 09:46:12;;;;;;;;;9.50;9.25;;;;;16.93;51.43;102349.06;5104444;27;61936;-85
2022/03/14 09:48:40;;;;;;;;;7.00;5.25;;;;;16.94;51.33;102342.91;5105714;27;61751;-84
2022/03/14 09:51:06;;;;;;;;;6.75;5.50;;;;;16.96;50.96;102346.53;5103613;27;61919;-84
2022/03/14 09:53:34;;;;;;;;;10.75;6.00;;;;;17.04;51.26;102341.56;5105498;27;61767;-85
2022/03/14 09:56:00;;;;;;;;;8.00;4.25;;;;;17.07;51.57;102343.44;5105384;27;61842;-84
2022/03/14 09:58:26;;;;;;;;;8.00;7.00;;;;;17.11;50.94;102340.97;5104540;27;62056;-85
2022/03/14 10:00:52;;;;;;;;;8.25;6.50;;;;;17.17;51.53;102343.91;5103724;27;62315;-85
2022/03/14 10:03:18;;;;;;;;;4.00;4.00;;;;;17.22;51.20;102349.38;5103870;27;62117;-85
2022/03/14 10:05:45;;;;;;;;;8.75;8.00;;;;;17.26;51.05;102351.34;5103871;27;62199;-85
2022/03/14 10:08:12;;;;;;;;;6.25;5.00;;;;;17.29;51.45;102347.94;5105796;27;61979;-85
2022/03/14 10:10:39;;;;;;;;;5.25;5.00;;;;;17.34;50.93;102354.31;5103350;27;62845;-85
2022/03/14 10:13:10;;;;;;;;;8.25;4.00;;;;;17.43;51.15;102352.03;5104109;27;61888;-85
2022/03/14 10:15:37;;;;;;;;;12.00;9.75;;;;;17.48;50.50;102355.81;5104505;27;62137;-85
2022/03/14 10:18:18;;;;;;;;;10.25;7.00;;;;;17.51;50.70;102347.97;5103839;27;61807;-85
2022/03/14 10:21:07;;;;;;;;;6.75;6.75;;;;;17.58;50.25;102351.78;5103132;27;63422;-85
2022/03/14 10:23:45;;;;;;;;;8.50;7.50;;;;;17.63;50.26;102354.59;5105387;27;61714;-84
2022/03/14 10:26:12;;;;;;;;;6.50;5.75;;;;;17.70;50.33;102362.00;5104107;27;61867;-85
2022/03/14 10:28:38;;;;;;;;;6.50;6.00;;;;;17.75;50.03;102363.09;5104234;27;61837;-85
2022/03/14 10:31:05;;;;;;;;;8.75;7.50;;;;;17.84;50.01;102365.22;5104408;27;61703;-85
2022/03/14 10:33:32;;;;;;;;;7.25;7.25;;;;;17.90;50.10;102363.72;5103041;27;61865;-85
2022/03/14 10:35:58;;;;;;;;;6.25;6.25;;;;;17.96;49.54;102363.06;5103094;27;61742;-85
2022/03/14 10:38:25;;;;;;;;;8.25;4.50;;;;;18.01;48.92;102369.47;5103618;27;62118;-85
2022/03/14 10:40:51;;;;;;;;;13.00;7.50;;;;;18.11;49.21;102374.28;5103093;27;62098;-85
2022/03/14 10:43:27;;;;;;;;;13.25;7.00;;;;;18.22;48.68;102371.16;5103683;27;62427;-85
2022/03/14 10:45:55;;;;;;;;;9.75;6.50;;;;;18.25;48.65;102365.94;5104922;27;61882;-85
2022/03/14 10:48:40;;;;;;;;;9.00;5.25;;;;;18.38;49.03;102362.91;5104117;27;61976;-84
2022/03/14 10:51:10;;;;;;;;;9.75;7.00;;;;;18.36;47.41;102360.19;5104179;27;62814;-85
2022/03/14 10:53:42;;;;;;;;;9.00;7.00;;;;;18.46;48.12;102350.78;5103477;27;61949;-85
2022/03/14 10:56:08;;;;;;;;;7.00;7.00;;;;;18.54;47.95;102356.41;5104258;27;62001;-85
2022/03/14 10:58:35;;;;;;;;;7.00;6.25;;;;;18.68;48.54;102355.19;5103619;27;61897;-85
2022/03/14 11:01:05;;;;;;;;;11.50;7.00;;;;;18.81;47.67;102351.22;5102643;27;63800;-85
2022/03/14 11:03:36;;;;;;;;;14.25;7.50;;;;;18.99;47.44;102361.63;5101783;27;62021;-83
2022/03/14 11:06:06;;;;;;;;;12.00;7.00;;;;;19.20;46.28;102373.00;5104319;27;61681;-85
2022/03/14 11:08:43;;;;;;;;;4.00;4.00;;;;;19.37;46.87;102376.25;5103520;27;61707;-85
2022/03/14 11:11:11;;;;;;;;;14.75;10.25;;;;;19.50;46.07;102368.69;5103457;27;61926;-85
2022/03/14 11:13:43;;;;;;;;;12.00;9.00;;;;;19.68;46.08;102371.03;5102992;27;61805;-85
2022/03/14 11:16:24;;;;;;;;;10.25;7.75;;;;;19.89;45.46;102370.84;5103185;27;61748;-85
2022/03/14 11:18:50;;;;;;;;;3.75;3.75;;;;;19.99;45.12;102368.50;5103969;27;61889;-85
2022/03/14 11:21:21;;;;;;;;;8.75;7.25;;;;;20.12;44.41;102366.25;5102642;27;63412;-85